createdAt,value
2023-03-30T00:00:34.326Z,23.2
2023-03-30T00:01:36.395Z,23.3
2023-03-30T00:02:38.579Z,23.2
2023-03-30T00:03:41.138Z,23.1
2023-03-30T00:04:44.202Z,23.3
2023-03-30T00:05:46.857Z,23.2
2023-03-30T00:06:48.751Z,23.2
2023-03-30T00:07:50.433Z,23.2
2023-03-30T00:08:52.573Z,23.4
2023-03-30T00:09:54.975Z,23.2
2023-03-30T00:10:56.863Z,23.2
2023-03-30T00:11:58.737Z,23.3
2023-03-30T00:13:00.806Z,23.2
2023-03-30T00:14:02.995Z,23.3
2023-03-30T00:15:05.175Z,23.1
2023-03-30T00:16:07.337Z,23.2
2023-03-30T00:17:09.609Z,23.2
2023-03-30T00:18:11.523Z,23.2
2023-03-30T00:19:13.625Z,23.1
2023-03-30T00:20:15.710Z,23.2
2023-03-30T00:21:17.992Z,23.2
2023-03-30T00:22:20.282Z,23.2
2023-03-30T00:23:22.149Z,23.3
2023-03-30T00:24:24.038Z,23.3
2023-03-30T00:25:26.116Z,23.4
2023-03-30T00:26:28.045Z,23.3
2023-03-30T00:27:30.216Z,23.4
2023-03-30T00:28:32.094Z,23.2
2023-03-30T00:29:34.020Z,23.2
2023-03-30T00:30:36.368Z,23.4
2023-03-30T00:31:38.520Z,23.2
2023-03-30T00:32:40.838Z,23.4
2023-03-30T00:33:46.240Z,23.2
2023-03-30T00:34:48.167Z,23.3
2023-03-30T00:35:49.911Z,23.4
2023-03-30T00:36:52.137Z,23.4
2023-03-30T00:37:54.159Z,23.4
2023-03-30T00:38:56.242Z,23.3
2023-03-30T00:39:58.347Z,23.2
2023-03-30T00:41:00.437Z,23.3
2023-03-30T00:42:03.832Z,23.3
2023-03-30T00:43:05.931Z,23.4
2023-03-30T00:44:08.055Z,23.2
2023-03-30T00:45:09.986Z,23.4
2023-03-30T00:46:12.622Z,23.4
2023-03-30T00:47:14.893Z,23.2
2023-03-30T00:48:16.756Z,23.3
2023-03-30T00:49:18.578Z,23.4
2023-03-30T00:50:20.509Z,23.3
2023-03-30T00:51:22.216Z,23.4
2023-03-30T00:52:24.276Z,23.4
2023-03-30T00:53:26.423Z,23.4
2023-03-30T00:54:28.527Z,23.3
2023-03-30T00:55:30.417Z,23.5
2023-03-30T00:56:32.565Z,23.3
2023-03-30T00:57:34.666Z,23.5
2023-03-30T00:58:36.795Z,23.4
2023-03-30T00:59:38.569Z,23.5
2023-03-30T01:00:40.538Z,23.3
2023-03-30T01:01:42.895Z,23.5
2023-03-30T01:02:45.019Z,23.4
2023-03-30T01:03:48.154Z,23.3
2023-03-30T01:04:50.970Z,23.4
2023-03-30T01:05:53.117Z,23.5
2023-03-30T01:06:55.016Z,23.2
2023-03-30T01:07:56.923Z,23.2
2023-03-30T01:08:58.836Z,23.3
2023-03-30T01:10:00.945Z,23.4
2023-03-30T01:11:02.977Z,23.4
2023-03-30T01:12:05.990Z,23.3
2023-03-30T01:13:07.881Z,23.4
2023-03-30T01:14:10.012Z,23.4
2023-03-30T01:15:12.154Z,23.4
2023-03-30T01:16:14.135Z,23.4
2023-03-30T01:17:16.541Z,23.5
2023-03-30T01:18:18.720Z,23.3
2023-03-30T01:19:20.858Z,23.5
2023-03-30T01:20:22.953Z,23.3
2023-03-30T01:21:25.034Z,23.4
2023-03-30T01:22:26.715Z,23.4
2023-03-30T01:23:28.512Z,23.4
2023-03-30T01:24:30.590Z,23.4
2023-03-30T01:25:32.689Z,23.3
2023-03-30T01:26:34.785Z,23.3
2023-03-30T01:27:36.852Z,23.5
2023-03-30T01:28:38.740Z,23.4
2023-03-30T01:29:40.857Z,23.4
2023-03-30T01:30:42.813Z,23.2
2023-03-30T01:31:44.932Z,23.5
2023-03-30T01:32:47.537Z,23.2
2023-03-30T01:33:49.752Z,23.3
2023-03-30T01:34:51.866Z,23.3
2023-03-30T01:35:54.076Z,23.1
2023-03-30T01:36:56.674Z,23.2
2023-03-30T01:37:58.759Z,23.4
2023-03-30T01:39:00.868Z,23.5
2023-03-30T01:40:02.754Z,23.3
2023-03-30T01:41:04.990Z,23.3
2023-03-30T01:42:07.746Z,23.3
2023-03-30T01:43:09.857Z,23.5
2023-03-30T01:44:11.794Z,23.5
2023-03-30T01:45:13.883Z,23.4
2023-03-30T01:46:15.999Z,23.4
2023-03-30T01:47:18.736Z,23.5
2023-03-30T01:48:21.060Z,23.5
2023-03-30T01:49:22.969Z,23.3
2023-03-30T01:50:24.875Z,23.3
2023-03-30T01:51:26.761Z,23.5
2023-03-30T01:52:28.911Z,23.3
2023-03-30T01:53:31.004Z,23.4
2023-03-30T01:54:33.177Z,23.3
2023-03-30T01:55:35.296Z,23.4
2023-03-30T01:56:37.442Z,23.3
2023-03-30T01:57:39.581Z,23.5
2023-03-30T01:58:41.729Z,23.3
2023-03-30T01:59:43.831Z,23.5
2023-03-30T02:00:45.904Z,23.4
2023-03-30T02:01:47.608Z,23.4
2023-03-30T02:02:49.958Z,23.4
2023-03-30T02:03:52.638Z,23.4
2023-03-30T02:04:55.071Z,23.3
2023-03-30T02:05:56.956Z,23.5
2023-03-30T02:06:58.838Z,23.3
2023-03-30T02:08:00.943Z,23.5
2023-03-30T02:09:02.826Z,23.5
2023-03-30T02:10:04.959Z,23.5
2023-03-30T02:11:07.210Z,23.3
2023-03-30T02:12:09.466Z,23.6
2023-03-30T02:13:11.164Z,23.5
2023-03-30T02:14:12.872Z,23.5
2023-03-30T02:15:14.776Z,23.6
2023-03-30T02:16:16.969Z,23.6
2023-03-30T02:17:18.886Z,23.6
2023-03-30T02:18:20.979Z,23.7
2023-03-30T02:19:23.165Z,23.5
2023-03-30T02:20:25.273Z,23.6
2023-03-30T02:21:27.348Z,23.4
2023-03-30T02:22:29.488Z,23.5
2023-03-30T02:23:31.391Z,23.5
2023-03-30T02:24:33.278Z,23.3
2023-03-30T02:25:35.187Z,23.5
2023-03-30T02:26:37.095Z,23.4
2023-03-30T02:27:38.979Z,23.5
2023-03-30T02:28:40.685Z,23.7
2023-03-30T02:29:42.703Z,23.6
2023-03-30T02:30:44.587Z,23.4
2023-03-30T02:31:46.500Z,23.5
2023-03-30T02:32:48.793Z,23.6
2023-03-30T02:33:51.221Z,23.5
2023-03-30T02:34:53.425Z,23.6
2023-03-30T02:35:55.142Z,23.5
2023-03-30T02:36:57.498Z,23.3
2023-03-30T02:37:59.600Z,23.6
2023-03-30T02:39:01.712Z,23.5
2023-03-30T02:40:03.801Z,23.6
2023-03-30T02:41:05.885Z,23.5
2023-03-30T02:42:08.160Z,23.5
2023-03-30T02:43:09.901Z,23.6
2023-03-30T02:44:11.399Z,23.5
2023-03-30T02:45:13.092Z,23.4
2023-03-30T02:46:15.180Z,23.4
2023-03-30T02:47:17.835Z,23.4
2023-03-30T02:48:19.920Z,23.4
2023-03-30T02:49:22.037Z,23.6
2023-03-30T02:50:24.225Z,23.4
2023-03-30T02:51:26.305Z,23.6
2023-03-30T02:52:28.389Z,23.6
2023-03-30T02:53:30.088Z,23.5
2023-03-30T02:54:32.212Z,23.5
2023-03-30T02:55:34.104Z,23.5
2023-03-30T02:56:35.691Z,23.4
2023-03-30T02:57:37.775Z,23.4
2023-03-30T02:58:39.663Z,23.5
2023-03-30T02:59:41.749Z,23.5
2023-03-30T03:00:43.668Z,23.5
2023-03-30T03:01:45.610Z,23.6
2023-03-30T03:02:48.044Z,23.7
2023-03-30T03:03:50.125Z,23.6
2023-03-30T03:04:52.352Z,23.6
2023-03-30T03:05:54.566Z,23.6
2023-03-30T03:06:56.756Z,23.5
2023-03-30T03:07:58.246Z,23.6
2023-03-30T03:09:00.239Z,23.6
2023-03-30T03:10:02.434Z,23.5
2023-03-30T03:11:04.639Z,23.7
2023-03-30T03:12:08.292Z,23.4
2023-03-30T03:13:10.441Z,23.6
2023-03-30T03:14:12.538Z,23.5
2023-03-30T03:15:14.234Z,23.7
2023-03-30T03:16:15.934Z,23.6
2023-03-30T03:17:18.145Z,23.5
2023-03-30T03:18:20.232Z,23.4
2023-03-30T03:19:22.290Z,23.5
2023-03-30T03:20:24.242Z,23.3
2023-03-30T03:21:26.410Z,23.3
2023-03-30T03:22:28.497Z,23.3
2023-03-30T03:23:30.582Z,23.2
2023-03-30T03:24:32.505Z,23.3
2023-03-30T03:25:34.201Z,23.3
2023-03-30T03:26:36.302Z,23.5
2023-03-30T03:27:38.415Z,23.2
2023-03-30T03:28:40.471Z,23.4
2023-03-30T03:29:42.334Z,23.4
2023-03-30T03:30:44.266Z,23.3
2023-03-30T03:31:46.462Z,23.3
2023-03-30T03:32:48.581Z,23.3
2023-03-30T03:33:50.739Z,23.3
2023-03-30T03:34:52.660Z,23.2
2023-03-30T03:35:54.862Z,23.3
2023-03-30T03:36:57.257Z,23.1
2023-03-30T03:37:59.274Z,23.3
2023-03-30T03:39:00.990Z,23.2
2023-03-30T03:40:03.174Z,23.2
2023-03-30T03:41:05.800Z,23.1
2023-03-30T03:42:08.638Z,23.2
2023-03-30T03:43:10.788Z,23.2
2023-03-30T03:44:12.869Z,23.1
2023-03-30T03:45:14.942Z,23.3
2023-03-30T03:46:17.141Z,23.3
2023-03-30T03:47:19.432Z,23.3
2023-03-30T03:48:21.780Z,23.1
2023-03-30T03:49:23.988Z,23.3
2023-03-30T03:50:26.132Z,23.2
2023-03-30T03:51:28.236Z,23.1
2023-03-30T03:52:30.417Z,23.2
2023-03-30T03:53:32.506Z,23.2
2023-03-30T03:54:34.216Z,23.2
2023-03-30T03:55:36.363Z,23.1
2023-03-30T03:56:38.514Z,23.2
2023-03-30T03:57:41.006Z,23.1
2023-03-30T03:58:42.516Z,23.1
2023-03-30T03:59:44.445Z,23.2
2023-03-30T04:00:46.601Z,23.1
2023-03-30T04:01:48.846Z,23.2
2023-03-30T04:02:51.195Z,23.1
2023-03-30T04:03:53.405Z,23.1
2023-03-30T04:04:55.500Z,23.1
2023-03-30T04:05:57.886Z,23.1
2023-03-30T04:06:59.803Z,23.1
2023-03-30T04:08:02.018Z,23.1
2023-03-30T04:09:03.927Z,23.3
2023-03-30T04:10:05.854Z,23.1
2023-03-30T04:11:07.977Z,23.2
2023-03-30T04:12:09.949Z,23.1
2023-03-30T04:13:11.677Z,23
2023-03-30T04:14:13.597Z,23.2
2023-03-30T04:15:15.490Z,23.2
2023-03-30T04:16:16.993Z,23.3
2023-03-30T04:17:19.318Z,23.1
2023-03-30T04:18:21.211Z,23.1
2023-03-30T04:19:23.335Z,23.2
2023-03-30T04:20:25.423Z,23.2
2023-03-30T04:21:27.552Z,23.1
2023-03-30T04:22:29.258Z,23.1
2023-03-30T04:23:31.468Z,23.2
2023-03-30T04:24:33.552Z,23.1
2023-03-30T04:25:35.651Z,23.2
2023-03-30T04:26:37.568Z,23.2
2023-03-30T04:27:39.777Z,23.2
2023-03-30T04:28:41.481Z,23.1
2023-03-30T04:29:43.560Z,23.1
2023-03-30T04:30:45.453Z,23.2
2023-03-30T04:31:47.621Z,23.1
2023-03-30T04:32:50.009Z,23.1
2023-03-30T04:33:52.326Z,23.1
2023-03-30T04:34:54.314Z,23
2023-03-30T04:35:56.699Z,23.1
2023-03-30T04:36:59.029Z,23
2023-03-30T04:38:01.027Z,23.2
2023-03-30T04:39:03.626Z,23.1
2023-03-30T04:40:05.748Z,23.2
2023-03-30T04:41:07.636Z,23.1
2023-03-30T04:42:09.730Z,23.2
2023-03-30T04:43:11.636Z,23.2
2023-03-30T04:44:13.748Z,23.1
2023-03-30T04:45:15.868Z,23
2023-03-30T04:46:17.764Z,23.1
2023-03-30T04:47:20.291Z,23
2023-03-30T04:48:22.241Z,23.1
2023-03-30T04:49:24.482Z,23.1
2023-03-30T04:50:26.571Z,23.1
2023-03-30T04:51:28.475Z,23.1
2023-03-30T04:52:30.391Z,23.3
2023-03-30T04:53:32.326Z,23.2
2023-03-30T04:54:34.530Z,23
2023-03-30T04:55:36.220Z,23
2023-03-30T04:56:38.102Z,23.1
2023-03-30T04:57:40.188Z,23.1
2023-03-30T04:58:42.078Z,23
2023-03-30T04:59:44.141Z,23.2
2023-03-30T05:00:46.220Z,23.2
2023-03-30T05:01:48.663Z,23.1
2023-03-30T05:02:51.231Z,23
2023-03-30T05:03:53.937Z,23.1
2023-03-30T05:04:56.233Z,23.1
2023-03-30T05:05:58.152Z,22.9
2023-03-30T05:07:00.232Z,23
2023-03-30T05:08:02.347Z,23
2023-03-30T05:09:04.320Z,23
2023-03-30T05:10:06.709Z,23
2023-03-30T05:11:08.610Z,23
2023-03-30T05:12:10.569Z,23.1
2023-03-30T05:13:12.460Z,23.1
2023-03-30T05:14:14.549Z,23.1
2023-03-30T05:15:16.500Z,23
2023-03-30T05:16:18.464Z,23.2
2023-03-30T05:17:20.778Z,22.9
2023-03-30T05:18:23.013Z,23
2023-03-30T05:19:24.903Z,22.9
2023-03-30T05:20:27.067Z,23
2023-03-30T05:21:29.204Z,23
2023-03-30T05:22:31.083Z,23
2023-03-30T05:23:32.982Z,23.1
2023-03-30T05:24:34.716Z,22.9
2023-03-30T05:25:36.948Z,22.9
2023-03-30T05:26:39.023Z,23
2023-03-30T05:27:41.231Z,22.9
2023-03-30T05:28:43.326Z,23
2023-03-30T05:29:45.459Z,23
2023-03-30T05:30:47.528Z,23
2023-03-30T05:31:49.575Z,22.9
2023-03-30T05:32:51.665Z,23
2023-03-30T05:33:53.841Z,22.9
2023-03-30T05:34:56.037Z,23.1
2023-03-30T05:35:58.160Z,22.9
2023-03-30T05:37:00.167Z,23
2023-03-30T05:38:01.913Z,23
2023-03-30T05:39:03.793Z,22.8
2023-03-30T05:40:05.787Z,23.1
2023-03-30T05:41:08.028Z,23
2023-03-30T05:42:09.934Z,23
2023-03-30T05:43:12.121Z,22.9
2023-03-30T05:44:13.854Z,23
2023-03-30T05:45:15.745Z,23
2023-03-30T05:46:17.864Z,23.1
2023-03-30T05:47:20.242Z,23
2023-03-30T05:48:22.095Z,23
2023-03-30T05:49:23.979Z,23
2023-03-30T05:50:25.888Z,22.9
2023-03-30T05:51:27.599Z,23.1
2023-03-30T05:52:29.727Z,23
2023-03-30T05:53:31.824Z,22.9
2023-03-30T05:54:33.734Z,22.8
2023-03-30T05:55:35.459Z,22.9
2023-03-30T05:56:37.637Z,22.9
2023-03-30T05:57:39.732Z,23
2023-03-30T05:58:41.725Z,23
2023-03-30T05:59:43.812Z,22.9
2023-03-30T06:00:45.887Z,22.9
2023-03-30T06:01:47.977Z,22.9
2023-03-30T06:02:50.130Z,22.9
2023-03-30T06:03:52.350Z,22.9
2023-03-30T06:04:55.645Z,23
2023-03-30T06:05:58.274Z,23
2023-03-30T06:07:00.245Z,22.9
2023-03-30T06:08:02.372Z,22.9
2023-03-30T06:09:04.513Z,23
2023-03-30T06:10:06.209Z,22.9
2023-03-30T06:11:08.357Z,22.8
2023-03-30T06:12:10.612Z,22.8
2023-03-30T06:13:12.518Z,22.6
2023-03-30T06:14:14.703Z,22.9
2023-03-30T06:15:16.640Z,22.9
2023-03-30T06:16:18.924Z,22.9
2023-03-30T06:17:21.299Z,22.7
2023-03-30T06:18:23.399Z,22.9
2023-03-30T06:19:25.524Z,22.7
2023-03-30T06:20:27.682Z,22.8
2023-03-30T06:21:29.602Z,22.9
2023-03-30T06:22:31.985Z,22.8
2023-03-30T06:23:34.131Z,22.9
2023-03-30T06:24:36.012Z,23
2023-03-30T06:25:38.098Z,22.8
2023-03-30T06:26:40.035Z,22.9
2023-03-30T06:27:44.123Z,22.8
2023-03-30T06:28:47.244Z,22.8
2023-03-30T06:29:48.992Z,22.8
2023-03-30T06:30:50.887Z,22.9
2023-03-30T06:31:52.863Z,22.9
2023-03-30T06:32:55.447Z,22.8
2023-03-30T06:33:57.698Z,22.8
2023-03-30T06:34:59.776Z,22.9
2023-03-30T06:36:01.900Z,23
2023-03-30T06:37:03.649Z,22.8
2023-03-30T06:38:05.764Z,22.9
2023-03-30T06:39:07.598Z,23
2023-03-30T06:40:09.699Z,23
2023-03-30T06:41:11.924Z,23.1
2023-03-30T06:42:13.967Z,23
2023-03-30T06:43:16.198Z,23
2023-03-30T06:44:18.417Z,22.9
2023-03-30T06:45:20.549Z,22.9
2023-03-30T06:46:22.437Z,22.8
2023-03-30T06:47:25.186Z,22.8
2023-03-30T06:48:27.771Z,22.7
2023-03-30T06:49:29.714Z,23
2023-03-30T06:50:31.801Z,22.9
2023-03-30T06:51:33.891Z,22.9
2023-03-30T06:52:35.591Z,22.7
2023-03-30T06:53:37.734Z,22.9
2023-03-30T06:54:39.829Z,23
2023-03-30T06:55:42.304Z,22.7
2023-03-30T06:56:44.465Z,23
2023-03-30T06:57:46.765Z,23
2023-03-30T06:58:48.946Z,22.8
2023-03-30T06:59:51.042Z,23
2023-03-30T07:00:52.959Z,22.8
2023-03-30T07:01:55.141Z,22.7
2023-03-30T07:02:57.553Z,22.8
2023-03-30T07:03:59.916Z,22.7
2023-03-30T07:05:02.360Z,22.6
2023-03-30T07:06:04.046Z,22.8
2023-03-30T07:07:06.167Z,22.7
2023-03-30T07:08:08.260Z,22.7
2023-03-30T07:09:10.173Z,22.9
2023-03-30T07:10:12.585Z,22.8
2023-03-30T07:11:14.767Z,22.9
2023-03-30T07:12:16.953Z,22.7
2023-03-30T07:13:18.900Z,22.7
2023-03-30T07:14:21.126Z,22.9
2023-03-30T07:15:23.036Z,22.9
2023-03-30T07:16:25.182Z,22.9
2023-03-30T07:17:27.708Z,22.7
2023-03-30T07:18:30.126Z,22.8
2023-03-30T07:19:32.238Z,22.8
2023-03-30T07:20:34.304Z,22.9
2023-03-30T07:21:36.285Z,22.7
2023-03-30T07:22:38.400Z,22.7
2023-03-30T07:23:40.115Z,22.8
2023-03-30T07:24:41.849Z,22.7
2023-03-30T07:25:44.066Z,22.8
2023-03-30T07:26:45.807Z,22.8
2023-03-30T07:27:47.518Z,23
2023-03-30T07:28:49.728Z,23
2023-03-30T07:29:52.003Z,22.9
2023-03-30T07:30:53.971Z,22.9
2023-03-30T07:31:56.328Z,22.7
2023-03-30T07:32:58.913Z,22.7
2023-03-30T07:34:01.689Z,22.8
2023-03-30T07:35:03.821Z,22.8
2023-03-30T07:36:05.938Z,22.6
2023-03-30T07:37:08.313Z,22.8
2023-03-30T07:38:10.402Z,22.9
2023-03-30T07:39:12.100Z,22.9
2023-03-30T07:40:14.046Z,22.9
2023-03-30T07:41:16.436Z,22.7
2023-03-30T07:42:18.441Z,22.7
2023-03-30T07:43:20.365Z,22.8
2023-03-30T07:44:22.525Z,22.8
2023-03-30T07:45:24.758Z,22.8
2023-03-30T07:46:26.741Z,22.5
2023-03-30T07:47:29.099Z,22.7
2023-03-30T07:48:31.338Z,22.7
2023-03-30T07:49:33.623Z,22.9
2023-03-30T07:50:40.095Z,22.7
2023-03-30T07:51:44.367Z,22.8
2023-03-30T07:52:46.468Z,22.8
2023-03-30T07:53:48.383Z,22.9
2023-03-30T07:54:50.336Z,22.6
2023-03-30T07:55:52.218Z,22.9
2023-03-30T07:56:53.774Z,22.6
2023-03-30T07:57:55.909Z,22.7
2023-03-30T07:58:59.003Z,22.8
2023-03-30T08:00:02.656Z,22.8
2023-03-30T08:01:05.201Z,22.7
2023-03-30T08:02:08.240Z,22.8
2023-03-30T08:03:10.393Z,22.7
2023-03-30T08:04:13.383Z,22.7
2023-03-30T08:05:16.083Z,22.8
2023-03-30T08:06:18.698Z,22.7
2023-03-30T08:07:20.804Z,22.7
2023-03-30T08:08:22.922Z,22.7
2023-03-30T08:09:25.061Z,22.8
2023-03-30T08:10:27.133Z,22.7
2023-03-30T08:11:29.030Z,22.7
2023-03-30T08:12:31.150Z,22.7
2023-03-30T08:13:32.877Z,22.7
2023-03-30T08:14:34.803Z,22.7
2023-03-30T08:15:36.726Z,22.8
2023-03-30T08:16:39.171Z,22.7
2023-03-30T08:17:41.656Z,22.8
2023-03-30T08:18:44.020Z,22.7
2023-03-30T08:19:45.921Z,22.8
2023-03-30T08:20:48.120Z,22.7
2023-03-30T08:21:50.033Z,22.8
2023-03-30T08:22:52.145Z,22.6
2023-03-30T08:23:54.117Z,22.7
2023-03-30T08:24:55.624Z,22.7
2023-03-30T08:25:57.791Z,22.7
2023-03-30T08:26:59.936Z,22.7
2023-03-30T08:28:02.346Z,22.8
2023-03-30T08:29:04.480Z,22.7
2023-03-30T08:30:06.577Z,22.8
2023-03-30T08:31:08.780Z,22.9
2023-03-30T08:32:11.332Z,22.8
2023-03-30T08:33:13.281Z,22.6
2023-03-30T08:34:15.497Z,22.7
2023-03-30T08:35:17.591Z,22.8
2023-03-30T08:36:19.681Z,22.9
2023-03-30T08:37:21.562Z,22.7
2023-03-30T08:38:23.638Z,22.6
2023-03-30T08:39:25.761Z,22.8
2023-03-30T08:40:27.662Z,22.7
2023-03-30T08:41:29.587Z,22.7
2023-03-30T08:42:31.470Z,22.8
2023-03-30T08:43:33.375Z,22.9
2023-03-30T08:44:35.480Z,22.9
2023-03-30T08:45:38.597Z,22.8
2023-03-30T08:46:45.027Z,22.6
2023-03-30T08:47:47.266Z,22.8
2023-03-30T08:48:49.681Z,22.8
2023-03-30T08:49:51.806Z,22.7
2023-03-30T08:50:53.732Z,22.9
2023-03-30T08:51:55.844Z,22.7
2023-03-30T08:52:57.845Z,22.6
2023-03-30T08:53:59.996Z,22.6
2023-03-30T08:55:02.131Z,22.8
2023-03-30T08:56:04.245Z,22.8
2023-03-30T08:57:06.220Z,22.7
2023-03-30T08:58:08.655Z,22.8
2023-03-30T08:59:10.795Z,22.7
2023-03-30T09:00:12.513Z,22.7
2023-03-30T09:01:14.761Z,22.7
2023-03-30T09:02:17.079Z,22.8
2023-03-30T09:03:19.627Z,22.9
2023-03-30T09:04:22.061Z,22.8
2023-03-30T09:05:24.000Z,22.7
2023-03-30T09:06:26.547Z,22.9
2023-03-30T09:07:28.657Z,22.9
2023-03-30T09:08:30.791Z,22.8
2023-03-30T09:09:32.743Z,22.8
2023-03-30T09:10:34.722Z,22.9
2023-03-30T09:11:36.804Z,22.8
2023-03-30T09:12:38.927Z,23
2023-03-30T09:13:41.422Z,22.8
2023-03-30T09:14:43.509Z,22.9
2023-03-30T09:15:45.248Z,22.8
2023-03-30T09:16:47.374Z,22.9
2023-03-30T09:17:49.529Z,22.8
2023-03-30T09:18:52.133Z,22.9
2023-03-30T09:19:54.041Z,22.8
2023-03-30T09:20:55.990Z,22.9
2023-03-30T09:21:57.935Z,22.8
2023-03-30T09:22:59.825Z,22.7
2023-03-30T09:24:01.545Z,22.9
2023-03-30T09:25:03.637Z,22.9
2023-03-30T09:26:05.624Z,22.8
2023-03-30T09:27:07.560Z,22.9
2023-03-30T09:28:09.693Z,22.7
2023-03-30T09:29:11.818Z,22.8
2023-03-30T09:30:13.919Z,22.8
2023-03-30T09:31:16.067Z,22.8
2023-03-30T09:32:22.770Z,22.8
2023-03-30T09:33:24.844Z,22.8
2023-03-30T09:34:27.063Z,22.6
2023-03-30T09:35:29.046Z,22.7
2023-03-30T09:36:31.200Z,22.9
2023-03-30T09:37:33.335Z,22.7
2023-03-30T09:38:35.277Z,22.8
2023-03-30T09:39:37.138Z,23
2023-03-30T09:40:38.881Z,22.8
2023-03-30T09:41:40.963Z,22.7
2023-03-30T09:42:42.878Z,22.7
2023-03-30T09:43:45.006Z,22.9
2023-03-30T09:44:47.205Z,22.7
2023-03-30T09:45:49.354Z,22.7
2023-03-30T09:46:51.398Z,22.7
2023-03-30T09:47:53.125Z,22.6
2023-03-30T09:48:55.504Z,22.9
2023-03-30T09:49:57.735Z,22.8
2023-03-30T09:50:59.848Z,22.9
2023-03-30T09:52:01.743Z,22.7
2023-03-30T09:53:03.469Z,22.7
2023-03-30T09:54:05.369Z,22.9
2023-03-30T09:55:07.319Z,22.9
2023-03-30T09:56:09.423Z,22.6
2023-03-30T09:57:11.557Z,22.9
2023-03-30T09:58:13.822Z,22.9
2023-03-30T09:59:15.757Z,22.7
2023-03-30T10:00:17.688Z,22.8
2023-03-30T10:01:19.864Z,22.9
2023-03-30T10:02:22.375Z,22.9
2023-03-30T10:03:25.005Z,22.8
2023-03-30T10:04:27.779Z,23
2023-03-30T10:05:30.273Z,22.9
2023-03-30T10:06:32.384Z,22.8
2023-03-30T10:07:34.483Z,22.9
2023-03-30T10:08:36.590Z,22.7
2023-03-30T10:09:38.868Z,23
2023-03-30T10:10:40.972Z,22.9
2023-03-30T10:11:43.076Z,22.8
2023-03-30T10:12:45.172Z,22.8
2023-03-30T10:13:47.083Z,22.8
2023-03-30T10:14:49.203Z,22.7
2023-03-30T10:15:51.106Z,22.8
2023-03-30T10:16:53.390Z,22.8
2023-03-30T10:17:55.561Z,22.8
2023-03-30T10:18:58.065Z,22.9
2023-03-30T10:20:07.463Z,22.9
2023-03-30T10:21:04.977Z,22.8
2023-03-30T10:22:07.200Z,22.7
2023-03-30T10:23:09.257Z,22.9
2023-03-30T10:24:11.354Z,22.9
2023-03-30T10:25:13.239Z,22.9
2023-03-30T10:26:15.322Z,22.8
2023-03-30T10:27:17.265Z,22.8
2023-03-30T10:28:19.172Z,22.8
2023-03-30T10:29:21.078Z,22.7
2023-03-30T10:30:23.181Z,22.8
2023-03-30T10:31:27.700Z,22.8
2023-03-30T10:32:30.346Z,23
2023-03-30T10:33:32.331Z,22.9
2023-03-30T10:34:34.012Z,22.9
2023-03-30T10:35:36.188Z,22.9
2023-03-30T10:36:38.670Z,22.9
2023-03-30T10:37:40.908Z,23
2023-03-30T10:38:42.996Z,22.8
2023-03-30T10:39:45.068Z,22.8
2023-03-30T10:40:46.768Z,23
2023-03-30T10:41:48.897Z,22.9
2023-03-30T10:42:51.000Z,23
2023-03-30T10:43:52.914Z,22.7
2023-03-30T10:44:55.000Z,22.7
2023-03-30T10:45:59.773Z,22.7
2023-03-30T10:47:02.126Z,22.7
2023-03-30T10:48:04.459Z,23
2023-03-30T10:49:06.619Z,22.9
2023-03-30T10:50:08.756Z,22.9
2023-03-30T10:51:10.736Z,22.8
2023-03-30T10:52:13.288Z,22.7
2023-03-30T10:53:15.532Z,22.9
2023-03-30T10:54:17.647Z,22.9
2023-03-30T10:55:19.545Z,22.7
2023-03-30T10:56:21.714Z,23
2023-03-30T10:57:24.120Z,22.7
2023-03-30T10:58:26.686Z,23
2023-03-30T10:59:28.830Z,23
2023-03-30T11:00:30.734Z,22.9
2023-03-30T11:01:32.517Z,22.7
2023-03-30T11:02:34.999Z,22.9
2023-03-30T11:03:37.634Z,22.9
2023-03-30T11:04:40.064Z,23
2023-03-30T11:05:42.170Z,22.8
2023-03-30T11:06:44.094Z,22.9
2023-03-30T11:07:46.185Z,22.9
2023-03-30T11:08:48.559Z,23
2023-03-30T11:09:50.255Z,22.9
2023-03-30T11:10:51.729Z,22.9
2023-03-30T11:11:54.072Z,22.8
2023-03-30T11:12:56.202Z,22.9
2023-03-30T11:13:57.934Z,23
2023-03-30T11:15:00.022Z,22.9
2023-03-30T11:16:02.248Z,22.8
2023-03-30T11:17:05.973Z,23
2023-03-30T11:18:08.153Z,22.9
2023-03-30T11:19:10.496Z,22.8
2023-03-30T11:20:12.738Z,22.9
2023-03-30T11:21:14.693Z,22.8
2023-03-30T11:22:16.404Z,22.9
2023-03-30T11:23:18.535Z,23
2023-03-30T11:24:20.594Z,23
2023-03-30T11:25:22.757Z,23
2023-03-30T11:26:24.857Z,23
2023-03-30T11:27:26.787Z,22.8
2023-03-30T11:28:28.883Z,22.9
2023-03-30T11:29:30.965Z,22.9
2023-03-30T11:30:33.104Z,23
2023-03-30T11:31:35.245Z,23
2023-03-30T11:32:37.448Z,23
2023-03-30T11:33:39.725Z,23
2023-03-30T11:34:42.089Z,22.9
2023-03-30T11:35:44.057Z,23
2023-03-30T11:36:46.158Z,23
2023-03-30T11:37:48.296Z,23
2023-03-30T11:38:50.408Z,22.9
2023-03-30T11:39:52.650Z,22.9
2023-03-30T11:40:54.596Z,22.8
2023-03-30T11:41:56.714Z,23
2023-03-30T11:42:58.846Z,23
2023-03-30T11:44:00.779Z,22.9
2023-03-30T11:45:02.749Z,22.8
2023-03-30T11:46:04.659Z,23
2023-03-30T11:47:08.565Z,23
2023-03-30T11:48:10.736Z,22.9
2023-03-30T11:49:13.451Z,22.9
2023-03-30T11:50:15.673Z,23
2023-03-30T11:51:17.653Z,22.9
2023-03-30T11:52:19.549Z,23
2023-03-30T11:53:21.673Z,22.9
2023-03-30T11:54:23.594Z,22.9
2023-03-30T11:55:26.096Z,22.6
2023-03-30T11:56:27.640Z,23
2023-03-30T11:57:29.897Z,23
2023-03-30T11:58:32.298Z,23.1
2023-03-30T11:59:34.410Z,23
2023-03-30T12:00:36.346Z,22.9
2023-03-30T12:01:38.248Z,22.9
2023-03-30T12:02:40.233Z,23.1
2023-03-30T12:03:43.019Z,22.9
2023-03-30T12:04:46.297Z,23.1
2023-03-30T12:05:48.717Z,23.1
2023-03-30T12:06:50.804Z,22.9
2023-03-30T12:07:52.946Z,22.9
2023-03-30T12:08:55.264Z,22.9
2023-03-30T12:09:58.106Z,22.9
2023-03-30T12:11:04.710Z,23
2023-03-30T12:12:08.068Z,22.9
2023-03-30T12:13:10.196Z,22.9
2023-03-30T12:14:11.934Z,22.9
2023-03-30T12:15:14.014Z,23
2023-03-30T12:16:16.154Z,23
2023-03-30T12:17:18.530Z,22.9
2023-03-30T12:18:20.651Z,23
2023-03-30T12:19:22.556Z,22.9
2023-03-30T12:20:24.445Z,23
2023-03-30T12:21:26.323Z,22.8
2023-03-30T12:22:28.466Z,22.9
2023-03-30T12:23:30.358Z,23
2023-03-30T12:24:32.088Z,23
2023-03-30T12:25:34.217Z,22.9
2023-03-30T12:26:36.234Z,22.9
2023-03-30T12:27:38.435Z,22.9
2023-03-30T12:28:54.214Z,23
2023-03-30T12:30:50.337Z,22.8
2023-03-30T12:31:52.487Z,22.7
2023-03-30T12:32:55.319Z,22.9
2023-03-30T12:33:57.438Z,22.8
2023-03-30T12:34:59.190Z,22.9
2023-03-30T12:36:01.420Z,22.9
2023-03-30T12:37:04.857Z,23
2023-03-30T12:38:06.755Z,23
2023-03-30T12:39:08.865Z,22.9
2023-03-30T12:40:10.963Z,22.9
2023-03-30T12:41:12.847Z,22.9
2023-03-30T12:42:15.014Z,22.8
2023-03-30T12:43:17.038Z,23
2023-03-30T12:44:18.970Z,22.8
2023-03-30T12:45:20.881Z,23
2023-03-30T12:46:23.054Z,22.9
2023-03-30T12:47:25.459Z,23
2023-03-30T12:48:27.841Z,22.8
2023-03-30T12:49:29.969Z,22.8
2023-03-30T12:50:32.063Z,22.8
2023-03-30T12:51:33.987Z,22.8
2023-03-30T12:52:36.270Z,22.8
2023-03-30T12:53:38.213Z,23
2023-03-30T12:54:40.363Z,22.9
2023-03-30T12:55:42.509Z,23
2023-03-30T12:56:44.422Z,22.8
2023-03-30T12:57:46.521Z,22.9
2023-03-30T12:58:48.724Z,23
2023-03-30T12:59:50.604Z,22.9
2023-03-30T13:00:52.782Z,23
2023-03-30T13:01:54.789Z,22.9
2023-03-30T13:02:56.722Z,22.9
2023-03-30T13:03:58.983Z,23
2023-03-30T13:05:01.288Z,23
2023-03-30T13:06:03.708Z,22.8
2023-03-30T13:07:07.297Z,22.9
2023-03-30T13:08:09.193Z,22.9
2023-03-30T13:09:11.433Z,23
2023-03-30T13:10:13.599Z,22.9
2023-03-30T13:11:15.737Z,22.9
2023-03-30T13:12:17.867Z,22.9
2023-03-30T13:13:19.983Z,23
2023-03-30T13:14:22.169Z,22.9
2023-03-30T13:15:24.293Z,22.9
2023-03-30T13:16:26.437Z,22.9
2023-03-30T13:17:28.820Z,22.9
2023-03-30T13:18:30.980Z,22.9
2023-03-30T13:19:33.235Z,22.9
2023-03-30T13:20:35.724Z,23
2023-03-30T13:21:37.848Z,23
2023-03-30T13:22:39.780Z,22.9
2023-03-30T13:23:41.862Z,23
2023-03-30T13:24:43.744Z,23.1
2023-03-30T13:25:45.859Z,22.9
2023-03-30T13:26:47.987Z,23
2023-03-30T13:27:50.074Z,23
2023-03-30T13:28:51.989Z,22.9
2023-03-30T13:29:54.202Z,23
2023-03-30T13:30:55.957Z,23.1
2023-03-30T13:31:58.304Z,23
2023-03-30T13:33:00.854Z,22.9
2023-03-30T13:34:03.310Z,23
2023-03-30T13:35:07.136Z,22.9
2023-03-30T13:36:09.952Z,23
2023-03-30T13:37:12.244Z,22.9
2023-03-30T13:38:14.214Z,23
2023-03-30T13:39:16.142Z,22.8
2023-03-30T13:40:24.473Z,23
2023-03-30T13:41:22.818Z,23
2023-03-30T13:42:24.535Z,22.8
2023-03-30T13:43:26.649Z,23
2023-03-30T13:44:28.768Z,23.1
2023-03-30T13:45:31.003Z,23
2023-03-30T13:46:33.167Z,22.9
2023-03-30T13:47:35.424Z,23
2023-03-30T13:48:37.997Z,22.8
2023-03-30T13:49:39.934Z,22.9
2023-03-30T13:50:42.012Z,22.9
2023-03-30T13:51:43.711Z,22.9
2023-03-30T13:52:45.648Z,22.9
2023-03-30T13:53:47.791Z,23
2023-03-30T13:54:49.929Z,23
2023-03-30T13:55:52.126Z,23.1
2023-03-30T13:56:54.028Z,22.8